Airfield :







YOU CAN JOIN US ON...

 
LOGIN :

Register | Disclaimer

   EN    FR    IT 

 









Legend :    VFR   Marginal VFR   IFR   Intensive IFR   Very Intensive IFR
Visi :
Ceiling :
>= 8 km
>= 3000ft
5 to 8 km
1000 to 3000 ft
1500m to 5 km
500 to 1000 ft
800 to 1500m
200 to 500 ft
< 800m
< 200 ft
Symbols :   Thunderstorms  Fog  Heavy snow  Heavy precipitations  Wind > 20 kt







- Airport Elevation : 92 ft
- IATA code : YZX


CYZX - CFB Greenwood

CURRENT METAR :
  • 201900Z 27016KT 15SM SCT200 31/19 A2966 RMK CC4 SLP044

EXPIRED METARs :
  • 201800Z 28013G21KT 15SM FEW030 FEW250 30/21 A2967 RMK CU1CI2 SLP048
  • 201700Z 29014KT 15SM SCT030 SCT250 31/21 A2966 RMK SC3CI1 SLP044

TAF TAF CYZX
Valid from the 20 at 18:00 until the 21 at 18:00 UTC


201730Z 2018/2118 29010G20KT P6SM SCT040 SCT250
FM202300 25007KT P6SM FEW040 FEW080
FM210400 24005KT P6SM BKN050
FM211300 30007KT P6SM SCT040 SCT150
FM211700 04010KT P6SM BKN040 BKN150 RMK NXT FCST BY 210000Z
CZQM FIR / North America



MET'MAP, your aeronautical weather chart ! - Copyright ORBIFLY December 2007 - Disclaimer

ORBIFLY MET'MAP TEAM :

Programming & Development : Alexandra Zaïnal
Concept & Development : Baudouin d'Aumeries
Co-Development & Prog : Marc-Olivier Méhu
Technical & hardware support : Manuel Goepfert

Contact : metmap@orbifly.com




SOURCES & CREDITS :

   NOAA